sensor_id;sensor_type;location;lat;lon;timestamp;temperature;humidity
4376;DHT22;2202;50.866;12.750;2023-03-09T00:01:18;2.80;98.30
4376;DHT22;2202;50.866;12.750;2023-03-09T00:03:46;2.70;98.50
4376;DHT22;2202;50.866;12.750;2023-03-09T00:06:13;2.80;98.50
4376;DHT22;2202;50.866;12.750;2023-03-09T00:08:40;2.80;98.40
4376;DHT22;2202;50.866;12.750;2023-03-09T00:11:08;2.80;98.30
4376;DHT22;2202;50.866;12.750;2023-03-09T00:13:35;2.80;98.40
4376;DHT22;2202;50.866;12.750;2023-03-09T00:16:15;2.80;98.40
4376;DHT22;2202;50.866;12.750;2023-03-09T00:18:42;2.70;98.70
4376;DHT22;2202;50.866;12.750;2023-03-09T00:21:09;2.80;98.80
4376;DHT22;2202;50.866;12.750;2023-03-09T00:23:54;2.80;98.70
4376;DHT22;2202;50.866;12.750;2023-03-09T00:26:21;2.80;98.70
4376;DHT22;2202;50.866;12.750;2023-03-09T00:28:48;2.80;98.90
4376;DHT22;2202;50.866;12.750;2023-03-09T00:31:17;2.80;99.00
4376;DHT22;2202;50.866;12.750;2023-03-09T00:33:46;2.80;99.00
4376;DHT22;2202;50.866;12.750;2023-03-09T00:36:14;2.80;99.00
4376;DHT22;2202;50.866;12.750;2023-03-09T00:38:40;2.90;99.00
4376;DHT22;2202;50.866;12.750;2023-03-09T00:41:07;2.90;98.80
4376;DHT22;2202;50.866;12.750;2023-03-09T00:43:34;2.90;98.70
4376;DHT22;2202;50.866;12.750;2023-03-09T00:46:01;3.00;98.70
4376;DHT22;2202;50.866;12.750;2023-03-09T00:48:29;3.00;98.70
4376;DHT22;2202;50.866;12.750;2023-03-09T00:50:56;3.00;98.70
4376;DHT22;2202;50.866;12.750;2023-03-09T00:53:23;3.00;98.60
4376;DHT22;2202;50.866;12.750;2023-03-09T00:55:50;3.00;98.60
4376;DHT22;2202;50.866;12.750;2023-03-09T00:58:17;3.00;98.60
4376;DHT22;2202;50.866;12.750;2023-03-09T01:00:43;3.00;98.60
4376;DHT22;2202;50.866;12.750;2023-03-09T01:03:10;3.00;98.50
4376;DHT22;2202;50.866;12.750;2023-03-09T01:05:39;3.00;98.50
4376;DHT22;2202;50.866;12.750;2023-03-09T01:08:05;3.00;98.40
4376;DHT22;2202;50.866;12.750;2023-03-09T01:10:32;3.00;98.40
4376;DHT22;2202;50.866;12.750;2023-03-09T01:12:59;3.00;98.40
4376;DHT22;2202;50.866;12.750;2023-03-09T01:15:26;3.00;98.30
4376;DHT22;2202;50.866;12.750;2023-03-09T01:17:53;3.00;98.30
4376;DHT22;2202;50.866;12.750;2023-03-09T01:20:19;3.00;98.40
4376;DHT22;2202;50.866;12.750;2023-03-09T01:22:48;3.00;98.40
4376;DHT22;2202;50.866;12.750;2023-03-09T01:25:15;3.00;98.40
4376;DHT22;2202;50.866;12.750;2023-03-09T01:27:42;3.00;98.30
4376;DHT22;2202;50.866;12.750;2023-03-09T01:30:10;3.00;98.30
4376;DHT22;2202;50.866;12.750;2023-03-09T01:32:37;3.10;98.30
4376;DHT22;2202;50.866;12.750;2023-03-09T01:35:05;3.10;98.30
4376;DHT22;2202;50.866;12.750;2023-03-09T01:37:32;3.00;98.30
4376;DHT22;2202;50.866;12.750;2023-03-09T01:40:01;3.00;98.20
4376;DHT22;2202;50.866;12.750;2023-03-09T01:42:31;3.00;98.20
4376;DHT22;2202;50.866;12.750;2023-03-09T01:47:56;3.00;98.20
4376;DHT22;2202;50.866;12.750;2023-03-09T01:50:27;3.00;98.20
4376;DHT22;2202;50.866;12.750;2023-03-09T01:52:57;3.00;98.10
4376;DHT22;2202;50.866;12.750;2023-03-09T01:55:32;3.00;98.10
4376;DHT22;2202;50.866;12.750;2023-03-09T01:58:03;3.00;98.10
4376;DHT22;2202;50.866;12.750;2023-03-09T02:00:31;3.00;98.20
4376;DHT22;2202;50.866;12.750;2023-03-09T02:03:03;3.00;98.20
4376;DHT22;2202;50.866;12.750;2023-03-09T02:05:34;3.00;98.20
4376;DHT22;2202;50.866;12.750;2023-03-09T02:08:03;2.90;98.30
4376;DHT22;2202;50.866;12.750;2023-03-09T02:10:34;2.90;98.40
4376;DHT22;2202;50.866;12.750;2023-03-09T02:13:06;2.90;98.50
4376;DHT22;2202;50.866;12.750;2023-03-09T02:15:33;2.90;98.50
4376;DHT22;2202;50.866;12.750;2023-03-09T02:18:00;2.80;98.60
4376;DHT22;2202;50.866;12.750;2023-03-09T02:20:34;2.80;98.70
4376;DHT22;2202;50.866;12.750;2023-03-09T02:23:07;2.80;98.70
4376;DHT22;2202;50.866;12.750;2023-03-09T02:25:42;2.90;98.70
4376;DHT22;2202;50.866;12.750;2023-03-09T02:28:13;2.80;98.80
4376;DHT22;2202;50.866;12.750;2023-03-09T02:30:41;2.80;98.80
4376;DHT22;2202;50.866;12.750;2023-03-09T02:33:11;2.80;98.80
4376;DHT22;2202;50.866;12.750;2023-03-09T02:35:38;2.80;99.00
4376;DHT22;2202;50.866;12.750;2023-03-09T02:38:10;2.80;99.00
4376;DHT22;2202;50.866;12.750;2023-03-09T02:40:38;2.90;99.00
4376;DHT22;2202;50.866;12.750;2023-03-09T02:43:05;2.90;98.90
4376;DHT22;2202;50.866;12.750;2023-03-09T02:45:34;2.90;98.90
4376;DHT22;2202;50.866;12.750;2023-03-09T02:48:01;3.00;99.10
4376;DHT22;2202;50.866;12.750;2023-03-09T02:50:27;3.00;98.90
4376;DHT22;2202;50.866;12.750;2023-03-09T02:52:54;3.00;99.10
4376;DHT22;2202;50.866;12.750;2023-03-09T02:55:21;3.10;99.10
4376;DHT22;2202;50.866;12.750;2023-03-09T02:57:48;3.10;99.10
4376;DHT22;2202;50.866;12.750;2023-03-09T03:00:16;3.10;99.10
4376;DHT22;2202;50.866;12.750;2023-03-09T03:02:47;3.00;99.10
4376;DHT22;2202;50.866;12.750;2023-03-09T03:05:14;2.90;99.50
4376;DHT22;2202;50.866;12.750;2023-03-09T03:07:41;2.90;99.70
4376;DHT22;2202;50.866;12.750;2023-03-09T03:10:10;3.00;99.70
4376;DHT22;2202;50.866;12.750;2023-03-09T03:12:37;3.00;99.80
4376;DHT22;2202;50.866;12.750;2023-03-09T03:15:05;3.10;99.80
4376;DHT22;2202;50.866;12.750;2023-03-09T03:17:32;3.10;99.80
4376;DHT22;2202;50.866;12.750;2023-03-09T03:20:00;3.10;99.70
4376;DHT22;2202;50.866;12.750;2023-03-09T03:22:28;3.20;99.50
4376;DHT22;2202;50.866;12.750;2023-03-09T03:24:55;3.20;99.40
4376;DHT22;2202;50.866;12.750;2023-03-09T03:27:22;3.30;99.30
4376;DHT22;2202;50.866;12.750;2023-03-09T03:29:51;3.30;99.20
4376;DHT22;2202;50.866;12.750;2023-03-09T03:32:18;3.40;98.90
4376;DHT22;2202;50.866;12.750;2023-03-09T03:34:44;3.40;98.90
4376;DHT22;2202;50.866;12.750;2023-03-09T03:37:13;3.40;98.90
4376;DHT22;2202;50.866;12.750;2023-03-09T03:39:39;3.30;98.90
4376;DHT22;2202;50.866;12.750;2023-03-09T03:42:06;3.40;98.90
4376;DHT22;2202;50.866;12.750;2023-03-09T03:44:33;3.40;98.90
4376;DHT22;2202;50.866;12.750;2023-03-09T03:47:00;3.40;99.00
4376;DHT22;2202;50.866;12.750;2023-03-09T03:49:27;3.40;98.90
4376;DHT22;2202;50.866;12.750;2023-03-09T03:51:54;3.30;98.80
4376;DHT22;2202;50.866;12.750;2023-03-09T03:54:23;3.30;98.80
4376;DHT22;2202;50.866;12.750;2023-03-09T03:56:49;3.20;98.80
4376;DHT22;2202;50.866;12.750;2023-03-09T03:59:16;3.10;98.60
4376;DHT22;2202;50.866;12.750;2023-03-09T04:01:43;3.10;98.60
4376;DHT22;2202;50.866;12.750;2023-03-09T04:04:10;3.00;98.50
4376;DHT22;2202;50.866;12.750;2023-03-09T04:06:37;2.90;98.70
4376;DHT22;2202;50.866;12.750;2023-03-09T04:09:04;2.80;98.80
4376;DHT22;2202;50.866;12.750;2023-03-09T04:11:32;2.80;98.80
4376;DHT22;2202;50.866;12.750;2023-03-09T04:13:59;2.70;99.00
4376;DHT22;2202;50.866;12.750;2023-03-09T04:16:26;2.70;99.00
4376;DHT22;2202;50.866;12.750;2023-03-09T04:18:53;2.70;99.00
4376;DHT22;2202;50.866;12.750;2023-03-09T04:21:20;2.80;99.20
4376;DHT22;2202;50.866;12.750;2023-03-09T04:23:48;2.80;99.10
4376;DHT22;2202;50.866;12.750;2023-03-09T04:26:15;2.70;99.30
4376;DHT22;2202;50.866;12.750;2023-03-09T04:28:43;2.70;99.40
4376;DHT22;2202;50.866;12.750;2023-03-09T04:31:11;2.70;99.60
4376;DHT22;2202;50.866;12.750;2023-03-09T04:33:38;2.70;99.80
4376;DHT22;2202;50.866;12.750;2023-03-09T04:36:08;2.70;99.70
4376;DHT22;2202;50.866;12.750;2023-03-09T04:38:35;2.80;99.60
4376;DHT22;2202;50.866;12.750;2023-03-09T04:41:02;2.80;99.60
4376;DHT22;2202;50.866;12.750;2023-03-09T04:43:29;2.80;99.70
4376;DHT22;2202;50.866;12.750;2023-03-09T04:45:58;2.80;99.70
4376;DHT22;2202;50.866;12.750;2023-03-09T04:48:24;2.80;99.80
4376;DHT22;2202;50.866;12.750;2023-03-09T04:50:51;2.80;99.70
4376;DHT22;2202;50.866;12.750;2023-03-09T04:53:18;2.90;99.70
4376;DHT22;2202;50.866;12.750;2023-03-09T04:55:45;2.90;99.70
4376;DHT22;2202;50.866;12.750;2023-03-09T04:58:12;2.90;99.60
4376;DHT22;2202;50.866;12.750;2023-03-09T05:00:39;2.90;99.60
4376;DHT22;2202;50.866;12.750;2023-03-09T05:03:07;2.90;99.50
4376;DHT22;2202;50.866;12.750;2023-03-09T05:05:34;3.00;99.50
4376;DHT22;2202;50.866;12.750;2023-03-09T05:08:01;3.00;99.50
4376;DHT22;2202;50.866;12.750;2023-03-09T05:10:27;3.00;99.50
4376;DHT22;2202;50.866;12.750;2023-03-09T05:12:54;3.00;99.50
4376;DHT22;2202;50.866;12.750;2023-03-09T05:15:21;3.00;99.50
4376;DHT22;2202;50.866;12.750;2023-03-09T05:17:48;3.00;99.40
4376;DHT22;2202;50.866;12.750;2023-03-09T05:20:17;3.00;99.40
4376;DHT22;2202;50.866;12.750;2023-03-09T05:22:43;3.10;99.30
4376;DHT22;2202;50.866;12.750;2023-03-09T05:25:10;3.10;99.30
4376;DHT22;2202;50.866;12.750;2023-03-09T05:27:37;3.10;99.20
4376;DHT22;2202;50.866;12.750;2023-03-09T05:30:05;3.10;99.20
4376;DHT22;2202;50.866;12.750;2023-03-09T05:32:32;3.10;99.10
4376;DHT22;2202;50.866;12.750;2023-03-09T05:34:59;3.10;98.90
4376;DHT22;2202;50.866;12.750;2023-03-09T05:37:27;3.10;98.90
4376;DHT22;2202;50.866;12.750;2023-03-09T05:39:54;3.10;98.90
4376;DHT22;2202;50.866;12.750;2023-03-09T05:42:21;3.10;98.90
4376;DHT22;2202;50.866;12.750;2023-03-09T05:44:48;3.00;98.90
4376;DHT22;2202;50.866;12.750;2023-03-09T05:47:15;3.00;99.20
4376;DHT22;2202;50.866;12.750;2023-03-09T05:49:42;3.00;99.30
4376;DHT22;2202;50.866;12.750;2023-03-09T05:52:08;3.00;99.30
4376;DHT22;2202;50.866;12.750;2023-03-09T05:54:37;3.00;99.40
4376;DHT22;2202;50.866;12.750;2023-03-09T05:57:04;3.00;99.50
4376;DHT22;2202;50.866;12.750;2023-03-09T05:59:31;3.00;99.60
4376;DHT22;2202;50.866;12.750;2023-03-09T06:01:57;3.10;99.60
4376;DHT22;2202;50.866;12.750;2023-03-09T06:04:25;3.20;99.90
4376;DHT22;2202;50.866;12.750;2023-03-09T06:06:52;3.30;99.90
4376;DHT22;2202;50.866;12.750;2023-03-09T06:09:20;3.50;99.90
4376;DHT22;2202;50.866;12.750;2023-03-09T06:11:48;3.60;99.90
4376;DHT22;2202;50.866;12.750;2023-03-09T06:14:15;3.50;99.90
4376;DHT22;2202;50.866;12.750;2023-03-09T06:16:42;3.10;99.90
4376;DHT22;2202;50.866;12.750;2023-03-09T06:19:10;2.90;99.90
4376;DHT22;2202;50.866;12.750;2023-03-09T06:21:37;2.70;99.90
4376;DHT22;2202;50.866;12.750;2023-03-09T06:24:05;2.60;99.90
4376;DHT22;2202;50.866;12.750;2023-03-09T06:26:32;2.50;99.90
4376;DHT22;2202;50.866;12.750;2023-03-09T06:29:00;2.50;99.90
4376;DHT22;2202;50.866;12.750;2023-03-09T06:31:27;2.30;99.90
4376;DHT22;2202;50.866;12.750;2023-03-09T06:33:54;2.30;99.90
4376;DHT22;2202;50.866;12.750;2023-03-09T06:36:23;2.30;99.90
4376;DHT22;2202;50.866;12.750;2023-03-09T06:38:50;2.20;99.90
4376;DHT22;2202;50.866;12.750;2023-03-09T06:41:16;2.10;99.90
4376;DHT22;2202;50.866;12.750;2023-03-09T06:43:52;2.00;99.90
4376;DHT22;2202;50.866;12.750;2023-03-09T06:46:21;2.10;99.90
4376;DHT22;2202;50.866;12.750;2023-03-09T06:48:47;2.00;99.90
4376;DHT22;2202;50.866;12.750;2023-03-09T06:51:14;2.10;99.90
4376;DHT22;2202;50.866;12.750;2023-03-09T06:53:42;2.10;99.90
4376;DHT22;2202;50.866;12.750;2023-03-09T06:56:09;1.90;99.90
4376;DHT22;2202;50.866;12.750;2023-03-09T06:58:37;1.90;99.90
4376;DHT22;2202;50.866;12.750;2023-03-09T07:01:08;1.70;99.90
4376;DHT22;2202;50.866;12.750;2023-03-09T07:03:37;1.60;99.90
4376;DHT22;2202;50.866;12.750;2023-03-09T07:06:04;1.50;99.90
4376;DHT22;2202;50.866;12.750;2023-03-09T07:08:31;1.40;99.90
4376;DHT22;2202;50.866;12.750;2023-03-09T07:10:59;1.30;99.90
4376;DHT22;2202;50.866;12.750;2023-03-09T07:13:26;1.20;99.90
4376;DHT22;2202;50.866;12.750;2023-03-09T07:15:53;1.10;99.90
4376;DHT22;2202;50.866;12.750;2023-03-09T07:18:20;1.10;99.90
4376;DHT22;2202;50.866;12.750;2023-03-09T07:20:48;1.00;99.90
4376;DHT22;2202;50.866;12.750;2023-03-09T07:23:15;1.00;99.90
4376;DHT22;2202;50.866;12.750;2023-03-09T07:25:42;1.00;99.90
4376;DHT22;2202;50.866;12.750;2023-03-09T07:28:09;0.90;99.90
4376;DHT22;2202;50.866;12.750;2023-03-09T07:30:36;0.90;99.90
4376;DHT22;2202;50.866;12.750;2023-03-09T07:33:03;0.90;99.90
4376;DHT22;2202;50.866;12.750;2023-03-09T07:35:30;0.90;99.90
4376;DHT22;2202;50.866;12.750;2023-03-09T07:37:58;0.90;99.90
4376;DHT22;2202;50.866;12.750;2023-03-09T07:40:25;0.90;99.90
4376;DHT22;2202;50.866;12.750;2023-03-09T07:42:52;0.90;99.90
4376;DHT22;2202;50.866;12.750;2023-03-09T07:45:20;0.90;99.90
4376;DHT22;2202;50.866;12.750;2023-03-09T07:47:47;0.80;99.90
4376;DHT22;2202;50.866;12.750;2023-03-09T07:52:41;1.00;99.90
4376;DHT22;2202;50.866;12.750;2023-03-09T07:55:11;1.00;99.90
4376;DHT22;2202;50.866;12.750;2023-03-09T07:57:39;1.00;99.90
4376;DHT22;2202;50.866;12.750;2023-03-09T08:00:08;1.00;99.90
4376;DHT22;2202;50.866;12.750;2023-03-09T08:02:38;1.00;99.90
4376;DHT22;2202;50.866;12.750;2023-03-09T08:05:07;1.10;99.90
4376;DHT22;2202;50.866;12.750;2023-03-09T08:07:34;0.90;99.90
4376;DHT22;2202;50.866;12.750;2023-03-09T08:10:02;0.90;99.90
4376;DHT22;2202;50.866;12.750;2023-03-09T08:12:30;1.00;99.90
4376;DHT22;2202;50.866;12.750;2023-03-09T08:14:57;1.10;99.90
4376;DHT22;2202;50.866;12.750;2023-03-09T08:17:24;1.10;99.90
4376;DHT22;2202;50.866;12.750;2023-03-09T08:19:51;1.30;99.90
4376;DHT22;2202;50.866;12.750;2023-03-09T08:22:17;1.20;99.90
4376;DHT22;2202;50.866;12.750;2023-03-09T08:24:44;1.20;99.90
4376;DHT22;2202;50.866;12.750;2023-03-09T08:27:11;1.20;99.90
4376;DHT22;2202;50.866;12.750;2023-03-09T08:29:39;1.30;99.90
4376;DHT22;2202;50.866;12.750;2023-03-09T08:32:08;1.40;99.90
4376;DHT22;2202;50.866;12.750;2023-03-09T08:34:35;1.40;99.90
4376;DHT22;2202;50.866;12.750;2023-03-09T08:37:02;1.50;99.90
4376;DHT22;2202;50.866;12.750;2023-03-09T08:39:29;1.50;99.90
4376;DHT22;2202;50.866;12.750;2023-03-09T08:41:56;1.50;99.90
4376;DHT22;2202;50.866;12.750;2023-03-09T08:44:23;1.50;99.90
4376;DHT22;2202;50.866;12.750;2023-03-09T08:46:51;1.60;99.90
4376;DHT22;2202;50.866;12.750;2023-03-09T08:49:18;1.70;99.90
4376;DHT22;2202;50.866;12.750;2023-03-09T08:51:45;1.80;99.90
4376;DHT22;2202;50.866;12.750;2023-03-09T08:54:13;1.90;99.90
4376;DHT22;2202;50.866;12.750;2023-03-09T08:56:40;2.00;99.90
4376;DHT22;2202;50.866;12.750;2023-03-09T08:59:06;2.10;99.90
4376;DHT22;2202;50.866;12.750;2023-03-09T09:01:33;2.10;99.90
4376;DHT22;2202;50.866;12.750;2023-03-09T09:04:01;2.20;99.90
4376;DHT22;2202;50.866;12.750;2023-03-09T09:06:28;2.20;99.90
4376;DHT22;2202;50.866;12.750;2023-03-09T09:08:55;2.30;99.90
4376;DHT22;2202;50.866;12.750;2023-03-09T09:11:22;2.50;99.90
4376;DHT22;2202;50.866;12.750;2023-03-09T09:13:51;2.50;99.90
4376;DHT22;2202;50.866;12.750;2023-03-09T09:16:20;2.70;99.90
4376;DHT22;2202;50.866;12.750;2023-03-09T09:18:47;2.90;99.90
4376;DHT22;2202;50.866;12.750;2023-03-09T09:21:16;3.10;99.90
4376;DHT22;2202;50.866;12.750;2023-03-09T09:23:44;3.30;99.90
4376;DHT22;2202;50.866;12.750;2023-03-09T09:26:12;3.30;99.90
4376;DHT22;2202;50.866;12.750;2023-03-09T09:28:40;3.40;99.90
4376;DHT22;2202;50.866;12.750;2023-03-09T09:31:10;3.40;99.90
4376;DHT22;2202;50.866;12.750;2023-03-09T09:33:38;3.50;99.90
4376;DHT22;2202;50.866;12.750;2023-03-09T09:36:07;3.60;99.90
4376;DHT22;2202;50.866;12.750;2023-03-09T09:38:36;3.70;99.90
4376;DHT22;2202;50.866;12.750;2023-03-09T09:41:07;3.80;99.90
4376;DHT22;2202;50.866;12.750;2023-03-09T09:43:37;3.60;99.90
4376;DHT22;2202;50.866;12.750;2023-03-09T09:46:09;3.60;99.90
4376;DHT22;2202;50.866;12.750;2023-03-09T09:48:38;3.50;99.90
4376;DHT22;2202;50.866;12.750;2023-03-09T09:54:03;3.60;99.90
4376;DHT22;2202;50.866;12.750;2023-03-09T09:56:39;3.60;99.90
4376;DHT22;2202;50.866;12.750;2023-03-09T09:59:14;3.70;99.90
4376;DHT22;2202;50.866;12.750;2023-03-09T10:01:46;3.80;99.90
4376;DHT22;2202;50.866;12.750;2023-03-09T10:04:20;3.60;99.90
4376;DHT22;2202;50.866;12.750;2023-03-09T10:06:48;3.60;99.90
4376;DHT22;2202;50.866;12.750;2023-03-09T10:09:22;3.80;99.90
4376;DHT22;2202;50.866;12.750;2023-03-09T10:11:54;3.90;99.90
4376;DHT22;2202;50.866;12.750;2023-03-09T10:14:26;4.00;99.90
4376;DHT22;2202;50.866;12.750;2023-03-09T10:16:58;4.10;99.90
4376;DHT22;2202;50.866;12.750;2023-03-09T10:19:31;4.10;99.90
4376;DHT22;2202;50.866;12.750;2023-03-09T10:21:59;4.20;99.90
4376;DHT22;2202;50.866;12.750;2023-03-09T10:24:31;4.30;99.90
4376;DHT22;2202;50.866;12.750;2023-03-09T10:27:01;4.30;99.90
4376;DHT22;2202;50.866;12.750;2023-03-09T10:29:40;4.30;99.90
4376;DHT22;2202;50.866;12.750;2023-03-09T10:32:14;4.40;99.90
4376;DHT22;2202;50.866;12.750;2023-03-09T10:34:53;4.50;99.90
4376;DHT22;2202;50.866;12.750;2023-03-09T10:37:23;4.60;99.90
4376;DHT22;2202;50.866;12.750;2023-03-09T10:39:52;4.80;99.90
4376;DHT22;2202;50.866;12.750;2023-03-09T10:42:21;4.90;99.90
4376;DHT22;2202;50.866;12.750;2023-03-09T10:45:03;4.90;99.90
4376;DHT22;2202;50.866;12.750;2023-03-09T10:47:50;5.00;99.80
4376;DHT22;2202;50.866;12.750;2023-03-09T10:50:18;5.00;99.60
4376;DHT22;2202;50.866;12.750;2023-03-09T10:52:45;5.10;99.60
4376;DHT22;2202;50.866;12.750;2023-03-09T10:55:34;5.10;99.00
4376;DHT22;2202;50.866;12.750;2023-03-09T10:58:11;4.90;99.30
4376;DHT22;2202;50.866;12.750;2023-03-09T11:00:58;5.00;99.60
4376;DHT22;2202;50.866;12.750;2023-03-09T11:03:31;5.20;99.30
4376;DHT22;2202;50.866;12.750;2023-03-09T11:06:29;5.20;99.00
4376;DHT22;2202;50.866;12.750;2023-03-09T11:09:04;5.00;99.20
4376;DHT22;2202;50.866;12.750;2023-03-09T11:11:34;5.10;99.50
4376;DHT22;2202;50.866;12.750;2023-03-09T11:14:02;5.10;99.50
4376;DHT22;2202;50.866;12.750;2023-03-09T11:16:30;5.20;99.60
4376;DHT22;2202;50.866;12.750;2023-03-09T11:19:11;5.20;99.80
4376;DHT22;2202;50.866;12.750;2023-03-09T11:21:42;5.40;99.90
4376;DHT22;2202;50.866;12.750;2023-03-09T11:24:10;5.50;99.90
4376;DHT22;2202;50.866;12.750;2023-03-09T11:26:44;5.50;99.70
4376;DHT22;2202;50.866;12.750;2023-03-09T11:29:20;5.70;99.70
4376;DHT22;2202;50.866;12.750;2023-03-09T11:31:49;5.80;99.70
4376;DHT22;2202;50.866;12.750;2023-03-09T11:34:23;5.80;99.20
4376;DHT22;2202;50.866;12.750;2023-03-09T11:36:55;5.80;99.30
4376;DHT22;2202;50.866;12.750;2023-03-09T11:39:28;5.80;99.20
4376;DHT22;2202;50.866;12.750;2023-03-09T11:41:58;5.80;99.00
4376;DHT22;2202;50.866;12.750;2023-03-09T11:44:31;5.90;99.50
4376;DHT22;2202;50.866;12.750;2023-03-09T11:47:03;6.10;99.60
4376;DHT22;2202;50.866;12.750;2023-03-09T11:49:31;6.20;99.40
4376;DHT22;2202;50.866;12.750;2023-03-09T11:51:58;6.30;99.40
4376;DHT22;2202;50.866;12.750;2023-03-09T11:54:29;6.50;99.60
4376;DHT22;2202;50.866;12.750;2023-03-09T11:57:01;6.60;99.50
4376;DHT22;2202;50.866;12.750;2023-03-09T11:59:34;6.70;99.50
4376;DHT22;2202;50.866;12.750;2023-03-09T12:02:13;6.70;98.60
4376;DHT22;2202;50.866;12.750;2023-03-09T12:04:44;6.60;98.70
4376;DHT22;2202;50.866;12.750;2023-03-09T12:07:16;6.70;98.60
4376;DHT22;2202;50.866;12.750;2023-03-09T12:09:51;6.80;98.60
4376;DHT22;2202;50.866;12.750;2023-03-09T12:12:25;6.70;98.60
4376;DHT22;2202;50.866;12.750;2023-03-09T12:14:56;6.70;98.60
4376;DHT22;2202;50.866;12.750;2023-03-09T12:17:28;6.90;98.70
4376;DHT22;2202;50.866;12.750;2023-03-09T12:19:57;6.80;98.50
4376;DHT22;2202;50.866;12.750;2023-03-09T12:22:29;6.80;98.40
4376;DHT22;2202;50.866;12.750;2023-03-09T12:24:59;6.70;99.00
4376;DHT22;2202;50.866;12.750;2023-03-09T12:27:29;6.70;99.30
4376;DHT22;2202;50.866;12.750;2023-03-09T12:30:09;6.80;99.70
4376;DHT22;2202;50.866;12.750;2023-03-09T12:32:42;6.80;99.30
4376;DHT22;2202;50.866;12.750;2023-03-09T12:38:19;6.90;99.50
4376;DHT22;2202;50.866;12.750;2023-03-09T12:40:46;6.90;99.50
4376;DHT22;2202;50.866;12.750;2023-03-09T12:47:01;6.80;99.80
4376;DHT22;2202;50.866;12.750;2023-03-09T12:49:41;6.80;99.90
4376;DHT22;2202;50.866;12.750;2023-03-09T12:52:32;6.80;99.90
4376;DHT22;2202;50.866;12.750;2023-03-09T12:55:09;6.90;99.90
4376;DHT22;2202;50.866;12.750;2023-03-09T12:57:37;6.90;99.90
4376;DHT22;2202;50.866;12.750;2023-03-09T13:00:26;7.00;99.90
4376;DHT22;2202;50.866;12.750;2023-03-09T13:02:59;6.90;99.60
4376;DHT22;2202;50.866;12.750;2023-03-09T13:05:30;6.80;99.90
4376;DHT22;2202;50.866;12.750;2023-03-09T13:08:15;6.90;99.90
4376;DHT22;2202;50.866;12.750;2023-03-09T13:10:44;6.90;99.90
4376;DHT22;2202;50.866;12.750;2023-03-09T13:13:34;6.90;99.90
4376;DHT22;2202;50.866;12.750;2023-03-09T13:16:35;6.90;99.90
4376;DHT22;2202;50.866;12.750;2023-03-09T13:19:37;6.90;99.90
4376;DHT22;2202;50.866;12.750;2023-03-09T13:22:23;7.00;99.90
4376;DHT22;2202;50.866;12.750;2023-03-09T13:25:14;6.90;99.90
4376;DHT22;2202;50.866;12.750;2023-03-09T13:27:46;6.90;99.90
4376;DHT22;2202;50.866;12.750;2023-03-09T13:30:19;6.90;99.90
4376;DHT22;2202;50.866;12.750;2023-03-09T13:32:59;6.90;99.90
4376;DHT22;2202;50.866;12.750;2023-03-09T13:35:35;7.00;99.90
4376;DHT22;2202;50.866;12.750;2023-03-09T13:38:03;7.00;99.90
4376;DHT22;2202;50.866;12.750;2023-03-09T13:40:32;7.00;99.90
4376;DHT22;2202;50.866;12.750;2023-03-09T13:43:02;7.10;99.90
4376;DHT22;2202;50.866;12.750;2023-03-09T13:45:32;7.10;99.90
4376;DHT22;2202;50.866;12.750;2023-03-09T13:48:02;7.00;99.90
4376;DHT22;2202;50.866;12.750;2023-03-09T13:50:33;7.10;99.90
4376;DHT22;2202;50.866;12.750;2023-03-09T13:53:03;7.00;99.90
4376;DHT22;2202;50.866;12.750;2023-03-09T13:55:32;7.00;99.90
4376;DHT22;2202;50.866;12.750;2023-03-09T13:58:15;7.10;99.90
4376;DHT22;2202;50.866;12.750;2023-03-09T14:00:51;7.20;99.90
4376;DHT22;2202;50.866;12.750;2023-03-09T14:03:19;7.20;99.90
4376;DHT22;2202;50.866;12.750;2023-03-09T14:05:56;7.30;99.90
4376;DHT22;2202;50.866;12.750;2023-03-09T14:08:24;7.30;99.90
4376;DHT22;2202;50.866;12.750;2023-03-09T14:10:52;7.30;99.90
4376;DHT22;2202;50.866;12.750;2023-03-09T14:13:20;7.20;99.90
4376;DHT22;2202;50.866;12.750;2023-03-09T14:15:59;7.30;99.90
4376;DHT22;2202;50.866;12.750;2023-03-09T14:18:32;7.20;99.90
4376;DHT22;2202;50.866;12.750;2023-03-09T14:21:01;7.40;99.90
4376;DHT22;2202;50.866;12.750;2023-03-09T14:23:37;7.40;99.90
4376;DHT22;2202;50.866;12.750;2023-03-09T14:26:05;7.40;99.90
4376;DHT22;2202;50.866;12.750;2023-03-09T14:28:35;7.60;99.90
4376;DHT22;2202;50.866;12.750;2023-03-09T14:31:16;7.70;99.90
4376;DHT22;2202;50.866;12.750;2023-03-09T14:33:55;7.70;99.90
4376;DHT22;2202;50.866;12.750;2023-03-09T14:36:24;7.60;99.90
4376;DHT22;2202;50.866;12.750;2023-03-09T14:38:54;7.60;99.90
4376;DHT22;2202;50.866;12.750;2023-03-09T14:41:23;7.60;99.90
4376;DHT22;2202;50.866;12.750;2023-03-09T14:43:50;7.60;99.90
4376;DHT22;2202;50.866;12.750;2023-03-09T14:46:18;7.70;99.90
4376;DHT22;2202;50.866;12.750;2023-03-09T14:48:46;7.70;99.90
4376;DHT22;2202;50.866;12.750;2023-03-09T14:51:15;7.70;99.90
4376;DHT22;2202;50.866;12.750;2023-03-09T14:53:59;7.60;99.90
4376;DHT22;2202;50.866;12.750;2023-03-09T14:56:28;7.70;99.90
4376;DHT22;2202;50.866;12.750;2023-03-09T14:58:56;7.70;99.90
4376;DHT22;2202;50.866;12.750;2023-03-09T15:01:25;7.80;99.90
4376;DHT22;2202;50.866;12.750;2023-03-09T15:03:53;7.70;99.90
4376;DHT22;2202;50.866;12.750;2023-03-09T15:06:20;7.70;99.90
4376;DHT22;2202;50.866;12.750;2023-03-09T15:08:48;7.60;99.90
4376;DHT22;2202;50.866;12.750;2023-03-09T15:11:16;7.40;99.90
4376;DHT22;2202;50.866;12.750;2023-03-09T15:13:43;7.30;99.90
4376;DHT22;2202;50.866;12.750;2023-03-09T15:16:11;7.30;99.90
4376;DHT22;2202;50.866;12.750;2023-03-09T15:18:38;7.30;99.90
4376;DHT22;2202;50.866;12.750;2023-03-09T15:21:05;7.40;99.90
4376;DHT22;2202;50.866;12.750;2023-03-09T15:23:32;7.50;99.90
4376;DHT22;2202;50.866;12.750;2023-03-09T15:26:02;7.60;99.90
4376;DHT22;2202;50.866;12.750;2023-03-09T15:28:31;7.60;99.90
4376;DHT22;2202;50.866;12.750;2023-03-09T15:30:58;7.60;99.90
4376;DHT22;2202;50.866;12.750;2023-03-09T15:33:26;7.60;99.90
4376;DHT22;2202;50.866;12.750;2023-03-09T15:35:53;7.60;99.90
4376;DHT22;2202;50.866;12.750;2023-03-09T15:38:20;7.60;99.90
4376;DHT22;2202;50.866;12.750;2023-03-09T15:40:47;7.60;99.90
4376;DHT22;2202;50.866;12.750;2023-03-09T15:43:14;7.50;99.90
4376;DHT22;2202;50.866;12.750;2023-03-09T15:45:42;7.50;99.90
4376;DHT22;2202;50.866;12.750;2023-03-09T15:48:10;7.60;99.90
4376;DHT22;2202;50.866;12.750;2023-03-09T15:50:37;7.60;99.90
4376;DHT22;2202;50.866;12.750;2023-03-09T15:53:05;7.70;99.90
4376;DHT22;2202;50.866;12.750;2023-03-09T15:55:32;7.70;99.90
4376;DHT22;2202;50.866;12.750;2023-03-09T15:57:59;7.70;99.90
4376;DHT22;2202;50.866;12.750;2023-03-09T16:00:26;7.70;99.90
4376;DHT22;2202;50.866;12.750;2023-03-09T16:02:59;7.70;99.90
4376;DHT22;2202;50.866;12.750;2023-03-09T16:05:26;7.60;99.90
4376;DHT22;2202;50.866;12.750;2023-03-09T16:07:53;7.60;99.90
4376;DHT22;2202;50.866;12.750;2023-03-09T16:10:20;7.70;99.90
4376;DHT22;2202;50.866;12.750;2023-03-09T16:12:48;7.70;99.90
4376;DHT22;2202;50.866;12.750;2023-03-09T16:15:15;7.70;99.90
4376;DHT22;2202;50.866;12.750;2023-03-09T16:17:42;7.60;99.90
4376;DHT22;2202;50.866;12.750;2023-03-09T16:20:12;7.60;99.90
4376;DHT22;2202;50.866;12.750;2023-03-09T16:22:43;7.60;99.90
4376;DHT22;2202;50.866;12.750;2023-03-09T16:25:10;7.60;99.90
4376;DHT22;2202;50.866;12.750;2023-03-09T16:27:37;7.70;99.90
4376;DHT22;2202;50.866;12.750;2023-03-09T16:30:05;7.70;99.90
4376;DHT22;2202;50.866;12.750;2023-03-09T16:32:32;7.80;99.90